Time;durP1;ratioP1;P1;durP2;ratioP2;P2;SDS_P1;SDS_P2;PMS_P1;PMS_P2;Temp;Humidity;BMP_temperature;BMP_pressure;BME280_temperature;BME280_humidity;BME280_pressure;Samples;Min_cycle;Max_cycle;Signal;HPM_P1;HPM_P2
2021/09/19 00:00:41;;;;;;;14.50;12.40;;;13.60;28.90;;;;;;5060438;28;20047;-66
2021/09/19 00:03:09;;;;;;;14.73;11.90;;;13.60;29.00;;;;;;5048085;28;20110;-66
2021/09/19 00:05:38;;;;;;;14.45;11.02;;;13.50;29.00;;;;;;5063089;28;20044;-65
2021/09/19 00:08:06;;;;;;;15.23;11.50;;;13.50;29.40;;;;;;5066815;28;20515;-65
2021/09/19 00:10:34;;;;;;;13.75;11.90;;;13.50;29.70;;;;;;5065981;28;20437;-66
2021/09/19 00:13:02;;;;;;;14.30;11.90;;;13.50;29.50;;;;;;5061085;28;20056;-66
2021/09/19 00:15:31;;;;;;;14.93;12.40;;;13.50;29.90;;;;;;5064016;28;20055;-66
2021/09/19 00:17:59;;;;;;;14.23;12.05;;;13.40;31.30;;;;;;5062008;28;20314;-66
2021/09/19 00:20:28;;;;;;;16.23;12.52;;;13.30;31.60;;;;;;5043721;28;20048;-65
2021/09/19 00:22:56;;;;;;;14.88;12.35;;;13.20;32.90;;;;;;5066673;28;20581;-66
2021/09/19 00:25:24;;;;;;;15.45;13.15;;;13.20;33.80;;;;;;5060931;28;20522;-65
2021/09/19 00:27:52;;;;;;;17.92;13.05;;;13.10;34.50;;;;;;5062553;28;20185;-66
2021/09/19 00:30:20;;;;;;;15.55;12.13;;;13.10;35.30;;;;;;5065477;28;20099;-65
2021/09/19 00:32:50;;;;;;;15.45;12.85;;;13.00;35.50;;;;;;5059373;28;20169;-66
2021/09/19 00:35:22;;;;;;;16.35;13.43;;;13.00;37.00;;;;;;5046208;28;20055;-65
2021/09/19 00:37:50;;;;;;;16.02;13.20;;;12.90;37.60;;;;;;5063781;28;20072;-66
2021/09/19 00:40:18;;;;;;;16.05;13.50;;;12.90;38.10;;;;;;5060910;28;20052;-66
2021/09/19 00:42:48;;;;;;;16.10;13.70;;;12.90;38.50;;;;;;5065653;28;20033;-66
2021/09/19 00:45:18;;;;;;;17.85;13.45;;;12.90;38.70;;;;;;5061185;28;20045;-66
2021/09/19 00:47:47;;;;;;;15.73;12.63;;;12.90;38.50;;;;;;5064635;28;20055;-66
2021/09/19 00:50:21;;;;;;;17.25;14.00;;;12.90;38.40;;;;;;5063951;28;20063;-65
2021/09/19 00:52:50;;;;;;;16.50;13.05;;;12.80;39.10;;;;;;5060564;28;20059;-66
2021/09/19 00:55:20;;;;;;;15.55;13.30;;;12.80;38.90;;;;;;5061643;28;20072;-66
2021/09/19 00:57:53;;;;;;;15.88;13.48;;;12.80;39.50;;;;;;5065330;28;20522;-65
2021/09/19 01:00:23;;;;;;;16.95;13.80;;;12.80;39.60;;;;;;5062578;28;20052;-65
2021/09/19 01:02:53;;;;;;;15.75;13.40;;;12.70;39.40;;;;;;5064498;28;20504;-65
2021/09/19 01:05:24;;;;;;;15.63;13.32;;;12.70;39.40;;;;;;5039255;28;20053;-71
2021/09/19 01:07:52;;;;;;;17.63;14.05;;;12.70;39.40;;;;;;5038788;28;20041;-72
2021/09/19 01:10:22;;;;;;;17.10;13.73;;;12.70;39.40;;;;;;5037281;28;20044;-71
2021/09/19 01:12:52;;;;;;;16.55;13.52;;;12.70;39.40;;;;;;5042106;28;20045;-71
2021/09/19 01:15:21;;;;;;;16.83;13.52;;;12.70;39.50;;;;;;5035685;28;20102;-72
2021/09/19 01:17:50;;;;;;;18.30;14.30;;;12.60;39.80;;;;;;5043814;28;20110;-71
2021/09/19 01:20:18;;;;;;;18.63;14.68;;;12.60;39.70;;;;;;5040975;28;20099;-72
2021/09/19 01:22:59;;;;;;;14.57;12.55;;;12.60;40.70;;;;;;5037816;28;20099;-71
2021/09/19 01:25:28;;;;;;;15.88;13.40;;;12.60;40.40;;;;;;5042009;28;20060;-72
2021/09/19 01:27:56;;;;;;;17.65;13.82;;;12.60;40.80;;;;;;5040143;28;20045;-72
2021/09/19 01:30:25;;;;;;;18.25;13.50;;;12.60;41.00;;;;;;5038604;28;20041;-72
2021/09/19 01:32:53;;;;;;;18.00;13.50;;;12.50;40.60;;;;;;5037239;28;20057;-72
2021/09/19 01:35:21;;;;;;;15.95;13.75;;;12.50;40.40;;;;;;5038424;28;20128;-72
2021/09/19 01:37:49;;;;;;;17.00;13.02;;;12.50;40.90;;;;;;5055160;28;20196;-72
2021/09/19 01:40:18;;;;;;;17.63;13.07;;;12.50;40.60;;;;;;5065295;28;20144;-71
2021/09/19 01:42:47;;;;;;;18.98;13.90;;;12.40;41.10;;;;;;5059452;28;20087;-72
2021/09/19 01:45:15;;;;;;;17.25;13.88;;;12.50;41.80;;;;;;5046708;28;20053;-72
2021/09/19 01:47:43;;;;;;;20.38;15.77;;;12.40;42.30;;;;;;5042524;28;20056;-72
2021/09/19 01:50:11;;;;;;;19.50;15.55;;;12.40;42.90;;;;;;5040800;28;20077;-72
2021/09/19 01:52:40;;;;;;;18.50;14.73;;;12.40;43.40;;;;;;5044357;28;20053;-72
2021/09/19 01:55:08;;;;;;;18.10;14.68;;;12.30;43.30;;;;;;5040339;28;20056;-72
2021/09/19 01:57:36;;;;;;;16.90;14.48;;;12.30;43.90;;;;;;5038617;28;20475;-72
2021/09/19 02:00:09;;;;;;;18.60;14.73;;;12.30;43.60;;;;;;5045510;28;20051;-73
2021/09/19 02:02:38;;;;;;;16.92;13.95;;;12.30;43.80;;;;;;5042192;28;20048;-73
2021/09/19 02:05:08;;;;;;;17.83;14.15;;;12.30;43.80;;;;;;5032597;28;20136;-72
2021/09/19 02:07:38;;;;;;;16.85;14.30;;;12.30;43.70;;;;;;5046587;28;20087;-72
2021/09/19 02:10:09;;;;;;;21.15;14.70;;;12.30;43.60;;;;;;5039793;28;20045;-72
2021/09/19 02:12:38;;;;;;;15.32;13.70;;;12.30;43.90;;;;;;5042936;28;20056;-72
2021/09/19 02:15:10;;;;;;;18.35;14.80;;;12.20;44.00;;;;;;5040084;28;20056;-72
2021/09/19 02:17:38;;;;;;;16.60;13.63;;;12.20;44.30;;;;;;5041174;28;20516;-72
2021/09/19 02:20:09;;;;;;;17.73;14.13;;;12.20;44.50;;;;;;5045357;28;20048;-72
2021/09/19 02:22:38;;;;;;;18.00;12.70;;;12.10;44.50;;;;;;5048017;28;20488;-72
2021/09/19 02:25:07;;;;;;;16.48;13.38;;;12.10;45.10;;;;;;5054383;28;20056;-72
2021/09/19 02:27:36;;;;;;;16.75;12.40;;;12.00;44.50;;;;;;5034534;28;20040;-72
2021/09/19 02:30:09;;;;;;;16.63;12.80;;;12.00;45.20;;;;;;5060334;28;20040;-72
2021/09/19 02:32:37;;;;;;;15.27;13.00;;;12.00;45.40;;;;;;5034067;28;20679;-72
2021/09/19 02:35:07;;;;;;;16.58;13.52;;;12.00;45.70;;;;;;5038031;28;20061;-72
2021/09/19 02:37:35;;;;;;;17.80;13.77;;;12.00;45.70;;;;;;5037214;28;20041;-72
2021/09/19 02:40:06;;;;;;;17.65;14.13;;;11.90;45.80;;;;;;5037556;28;20096;-72
2021/09/19 02:42:34;;;;;;;18.27;14.20;;;11.80;46.10;;;;;;5044470;28;20045;-72
2021/09/19 02:45:02;;;;;;;18.80;14.10;;;11.80;46.70;;;;;;5056311;28;20781;-72
2021/09/19 02:47:31;;;;;;;21.00;14.60;;;11.80;47.00;;;;;;5062775;28;20032;-72
2021/09/19 02:50:00;;;;;;;17.85;13.95;;;11.80;47.00;;;;;;5059667;28;20076;-72
2021/09/19 02:52:28;;;;;;;17.05;13.38;;;11.80;47.00;;;;;;5058276;28;20115;-72
2021/09/19 02:54:56;;;;;;;15.43;13.35;;;11.80;46.90;;;;;;5060807;28;20041;-72
2021/09/19 02:57:24;;;;;;;17.42;13.40;;;11.80;47.30;;;;;;5062391;28;20040;-72
2021/09/19 02:59:52;;;;;;;16.70;13.50;;;11.80;47.00;;;;;;5060372;28;20090;-72
2021/09/19 03:02:20;;;;;;;15.98;13.48;;;11.90;46.80;;;;;;5061279;28;20040;-72
2021/09/19 03:04:50;;;;;;;14.75;13.13;;;11.80;46.20;;;;;;5056634;28;20551;-72
2021/09/19 03:07:18;;;;;;;15.77;12.90;;;11.80;46.10;;;;;;5062799;28;20053;-71
2021/09/19 03:09:46;;;;;;;16.83;13.60;;;11.80;45.90;;;;;;5062383;28;20052;-71
2021/09/19 03:12:14;;;;;;;15.35;12.73;;;11.80;46.00;;;;;;5059093;28;20047;-71
2021/09/19 03:14:42;;;;;;;15.65;12.80;;;11.80;46.40;;;;;;5060155;28;20530;-71
2021/09/19 03:17:10;;;;;;;15.35;12.30;;;11.80;46.90;;;;;;5058757;28;20666;-71
2021/09/19 03:19:38;;;;;;;16.70;13.20;;;11.70;46.70;;;;;;5060979;28;20037;-71
2021/09/19 03:22:07;;;;;;;15.55;12.75;;;11.60;46.80;;;;;;5064546;28;20106;-70
2021/09/19 03:24:36;;;;;;;18.35;12.30;;;11.60;46.80;;;;;;5058742;28;20110;-70
2021/09/19 03:27:04;;;;;;;15.45;12.15;;;11.50;47.20;;;;;;5057933;28;20051;-70
2021/09/19 03:29:32;;;;;;;14.10;11.70;;;11.50;47.40;;;;;;5062935;28;20098;-70
2021/09/19 03:32:00;;;;;;;14.60;12.20;;;11.50;47.30;;;;;;5059311;28;20048;-70
2021/09/19 03:34:28;;;;;;;15.75;12.40;;;11.50;47.80;;;;;;5062194;28;20048;-70
2021/09/19 03:36:56;;;;;;;20.42;11.35;;;11.50;47.40;;;;;;5060977;28;20496;-70
2021/09/19 03:39:26;;;;;;;13.95;11.60;;;11.60;46.80;;;;;;5061607;28;20040;-70
2021/09/19 03:41:54;;;;;;;13.15;11.45;;;11.60;46.80;;;;;;5068967;28;20123;-70
2021/09/19 03:44:22;;;;;;;13.20;11.40;;;11.60;46.60;;;;;;5061811;28;20551;-70
2021/09/19 03:46:50;;;;;;;14.40;11.50;;;11.60;46.00;;;;;;5044074;28;20627;-72
2021/09/19 03:49:18;;;;;;;13.90;10.65;;;11.60;46.20;;;;;;5062385;28;20121;-72
2021/09/19 03:51:46;;;;;;;13.10;10.48;;;11.60;46.30;;;;;;5065314;28;20041;-73
2021/09/19 03:54:14;;;;;;;12.65;10.35;;;11.50;46.20;;;;;;5061935;28;20123;-70
2021/09/19 03:56:43;;;;;;;12.43;10.50;;;11.50;44.80;;;;;;5067263;28;20048;-71
2021/09/19 03:59:11;;;;;;;13.65;10.57;;;11.60;44.80;;;;;;5063269;28;20060;-70
2021/09/19 04:01:39;;;;;;;13.73;10.32;;;11.60;44.70;;;;;;5064385;28;20056;-71
2021/09/19 04:04:07;;;;;;;13.50;10.05;;;11.60;44.80;;;;;;5064907;28;20110;-71
2021/09/19 04:06:35;;;;;;;12.30;9.93;;;11.60;44.50;;;;;;5065589;28;20467;-71
2021/09/19 04:09:03;;;;;;;11.25;10.00;;;11.50;44.50;;;;;;5062813;28;20056;-71
2021/09/19 04:11:31;;;;;;;12.07;9.63;;;11.60;44.30;;;;;;5068765;28;20075;-71
2021/09/19 04:14:01;;;;;;;11.13;9.73;;;11.50;43.90;;;;;;5060096;28;20051;-71
2021/09/19 04:16:33;;;;;;;11.07;9.55;;;11.40;44.20;;;;;;5052771;28;20516;-71
2021/09/19 04:19:03;;;;;;;12.55;10.20;;;11.40;44.50;;;;;;5046989;28;20098;-71
2021/09/19 04:21:32;;;;;;;11.52;9.65;;;11.30;45.10;;;;;;5041133;28;20064;-72
2021/09/19 04:24:00;;;;;;;10.82;9.15;;;11.30;44.90;;;;;;5039886;28;20044;-71
2021/09/19 04:26:28;;;;;;;11.75;9.50;;;11.30;44.80;;;;;;5044644;28;20045;-71
2021/09/19 04:28:56;;;;;;;11.20;8.77;;;11.30;45.00;;;;;;5042518;28;20045;-71
2021/09/19 04:31:26;;;;;;;11.43;9.02;;;11.20;44.30;;;;;;5045793;28;20119;-72
2021/09/19 04:33:54;;;;;;;10.57;8.63;;;11.20;44.10;;;;;;5039231;28;20056;-71
2021/09/19 04:36:23;;;;;;;9.82;8.43;;;11.20;44.50;;;;;;5041742;28;20049;-71
2021/09/19 04:38:51;;;;;;;10.40;9.25;;;11.20;44.10;;;;;;5044383;28;20068;-71
2021/09/19 04:41:18;;;;;;;10.07;8.48;;;11.20;44.60;;;;;;5056568;28;20068;-71
2021/09/19 04:43:46;;;;;;;11.13;7.75;;;11.20;44.40;;;;;;5044282;28;20672;-72
2021/09/19 04:46:14;;;;;;;10.38;8.52;;;11.10;44.50;;;;;;5047696;28;20045;-71
2021/09/19 04:48:44;;;;;;;9.85;7.97;;;11.10;44.70;;;;;;5040971;28;20071;-72
2021/09/19 04:51:12;;;;;;;11.13;8.70;;;11.10;44.90;;;;;;5046007;28;20049;-72
2021/09/19 04:53:40;;;;;;;10.38;8.85;;;11.10;45.20;;;;;;5038829;28;20045;-70
2021/09/19 04:56:08;;;;;;;9.32;8.32;;;11.10;46.00;;;;;;5035522;28;20054;-71
2021/09/19 04:58:36;;;;;;;10.00;8.60;;;11.10;45.20;;;;;;5038042;28;20052;-71
2021/09/19 05:01:04;;;;;;;9.60;8.13;;;11.10;45.20;;;;;;5040956;28;20489;-71
2021/09/19 05:03:32;;;;;;;9.65;8.45;;;11.00;45.10;;;;;;5038531;28;20057;-71
2021/09/19 05:06:02;;;;;;;10.10;8.27;;;11.00;45.50;;;;;;5045397;28;20153;-71
2021/09/19 05:08:30;;;;;;;9.93;8.93;;;11.00;45.20;;;;;;5037204;28;20049;-72
2021/09/19 05:10:58;;;;;;;10.32;8.50;;;11.00;45.20;;;;;;5042153;28;20042;-71
2021/09/19 05:13:26;;;;;;;9.57;8.55;;;11.00;45.10;;;;;;5038413;28;20118;-71
2021/09/19 05:15:54;;;;;;;9.57;8.23;;;11.00;45.00;;;;;;5037064;28;20527;-71
2021/09/19 05:18:22;;;;;;;11.20;8.95;;;11.00;44.70;;;;;;5043241;28;20508;-71
2021/09/19 05:20:50;;;;;;;10.60;9.13;;;11.00;45.10;;;;;;5061333;28;20044;-71
2021/09/19 05:23:20;;;;;;;9.52;8.32;;;11.10;44.70;;;;;;5062120;28;20098;-71
2021/09/19 05:25:48;;;;;;;10.95;8.82;;;11.00;45.20;;;;;;5061364;28;20041;-71
2021/09/19 05:28:16;;;;;;;11.63;8.45;;;11.00;45.10;;;;;;5061540;28;20488;-71
2021/09/19 05:30:44;;;;;;;10.88;8.88;;;11.10;44.90;;;;;;5060343;28;20231;-71
2021/09/19 05:33:12;;;;;;;9.82;8.48;;;11.20;44.50;;;;;;5065641;28;20630;-71
2021/09/19 05:35:40;;;;;;;9.90;8.02;;;11.30;44.00;;;;;;5059439;28;20566;-72
2021/09/19 05:38:08;;;;;;;9.65;7.82;;;11.30;42.90;;;;;;5063597;28;20079;-70
2021/09/19 05:40:38;;;;;;;9.95;8.60;;;11.40;42.10;;;;;;5063555;28;20454;-70
2021/09/19 05:43:06;;;;;;;10.63;8.82;;;11.40;41.70;;;;;;5059066;28;20561;-71
2021/09/19 05:45:34;;;;;;;11.23;8.55;;;11.50;41.30;;;;;;5062222;28;20044;-71
2021/09/19 05:48:03;;;;;;;9.48;8.30;;;11.60;40.00;;;;;;5061362;28;20044;-71
2021/09/19 05:50:31;;;;;;;9.13;7.78;;;11.60;40.30;;;;;;5058149;28;20519;-71
2021/09/19 05:52:59;;;;;;;9.55;8.02;;;11.70;39.30;;;;;;5065535;28;20048;-71
2021/09/19 05:55:27;;;;;;;9.90;7.70;;;11.70;38.60;;;;;;5060378;28;20129;-71
2021/09/19 05:57:57;;;;;;;9.32;7.53;;;11.70;38.50;;;;;;5061502;28;20044;-71
2021/09/19 06:00:25;;;;;;;8.82;7.20;;;11.70;38.30;;;;;;5064214;28;20048;-72
2021/09/19 06:02:53;;;;;;;9.80;7.60;;;11.70;38.00;;;;;;5059295;28;20542;-71
2021/09/19 06:05:21;;;;;;;10.18;7.22;;;11.80;37.40;;;;;;5060456;28;20049;-71
2021/09/19 06:07:49;;;;;;;10.00;8.15;;;11.90;36.60;;;;;;5064332;28;20753;-72
2021/09/19 06:10:18;;;;;;;8.48;7.22;;;11.80;34.40;;;;;;5059858;28;20101;-71
2021/09/19 06:12:46;;;;;;;10.65;7.43;;;11.90;35.60;;;;;;5062174;28;20049;-72
2021/09/19 06:15:15;;;;;;;9.05;7.05;;;12.00;34.70;;;;;;5059563;28;20082;-71
2021/09/19 06:17:45;;;;;;;11.23;7.40;;;12.10;32.90;;;;;;5059846;28;20110;-71
2021/09/19 06:20:13;;;;;;;9.70;6.97;;;12.10;33.30;;;;;;5062395;28;20041;-72
2021/09/19 06:22:43;;;;;;;7.75;6.95;;;12.20;31.70;;;;;;5061520;28;20048;-72
2021/09/19 06:25:12;;;;;;;7.75;6.95;;;12.20;32.50;;;;;;5054945;28;20045;-72
2021/09/19 06:27:40;;;;;;;9.35;7.03;;;12.40;30.50;;;;;;5064465;28;20193;-71
2021/09/19 06:30:10;;;;;;;9.18;7.55;;;12.50;28.60;;;;;;5058996;28;20469;-71
2021/09/19 06:32:40;;;;;;;8.35;7.15;;;12.40;30.60;;;;;;5027441;28;20048;-70
2021/09/19 06:35:11;;;;;;;10.18;7.05;;;12.40;30.60;;;;;;5042582;28;20068;-70
2021/09/19 06:37:41;;;;;;;7.88;6.95;;;12.60;28.50;;;;;;5060421;28;20054;-71
2021/09/19 06:40:10;;;;;;;7.70;6.88;;;12.60;28.90;;;;;;5060483;28;20459;-70
2021/09/19 06:42:38;;;;;;;8.02;6.53;;;12.70;27.40;;;;;;5060741;28;20113;-71
2021/09/19 06:45:07;;;;;;;7.32;6.57;;;12.70;27.40;;;;;;5058452;28;20053;-71
2021/09/19 06:47:35;;;;;;;8.40;7.13;;;12.50;26.90;;;;;;5066083;28;20527;-69
2021/09/19 06:50:05;;;;;;;9.10;6.85;;;12.80;27.40;;;;;;5060127;28;20059;-72
2021/09/19 06:52:33;;;;;;;8.98;7.13;;;12.90;26.20;;;;;;5054955;28;20099;-71
2021/09/19 06:55:02;;;;;;;7.15;6.45;;;12.90;25.60;;;;;;5061387;28;20102;-71
2021/09/19 06:57:30;;;;;;;6.78;6.07;;;12.90;25.20;;;;;;5060297;28;20040;-71
2021/09/19 06:59:58;;;;;;;7.43;6.03;;;12.90;26.40;;;;;;5059020;28;20068;-71
2021/09/19 07:02:26;;;;;;;7.38;6.13;;;12.90;25.40;;;;;;5062161;28;20039;-71
2021/09/19 07:04:54;;;;;;;6.70;6.00;;;13.10;24.20;;;;;;5057133;28;20500;-71
2021/09/19 07:07:24;;;;;;;7.05;5.97;;;13.20;24.20;;;;;;5057572;28;20503;-71
2021/09/19 07:09:52;;;;;;;7.60;5.65;;;13.30;22.90;;;;;;5062354;28;20064;-72
2021/09/19 07:12:20;;;;;;;6.60;5.90;;;13.20;23.30;;;;;;5057098;28;20044;-70
2021/09/19 07:14:48;;;;;;;8.27;5.60;;;13.30;23.70;;;;;;5040094;28;20045;-70
2021/09/19 07:17:16;;;;;;;7.35;5.90;;;13.60;21.60;;;;;;5062717;28;20052;-71
2021/09/19 07:19:44;;;;;;;8.35;6.20;;;13.70;20.10;;;;;;5059641;28;20064;-71
2021/09/19 07:22:12;;;;;;;6.75;6.05;;;13.60;21.00;;;;;;5056958;28;20056;-69
2021/09/19 07:24:41;;;;;;;7.03;5.68;;;13.70;21.10;;;;;;5056735;28;20052;-70
2021/09/19 07:27:09;;;;;;;6.60;5.70;;;13.70;19.60;;;;;;5057131;28;20153;-70
2021/09/19 07:29:38;;;;;;;6.20;5.57;;;13.70;20.40;;;;;;5060960;28;20037;-70
2021/09/19 07:32:07;;;;;;;6.13;5.53;;;13.70;19.50;;;;;;5058868;28;20094;-69
2021/09/19 07:34:36;;;;;;;6.57;5.60;;;13.80;19.10;;;;;;5057467;28;20110;-71
2021/09/19 07:37:07;;;;;;;7.88;5.90;;;14.00;18.50;;;;;;5063488;28;20060;-71
2021/09/19 07:39:36;;;;;;;7.93;6.05;;;14.00;17.80;;;;;;5060746;28;20053;-71
2021/09/19 07:42:06;;;;;;;8.00;5.82;;;14.20;17.90;;;;;;5061839;28;20088;-71
2021/09/19 07:44:38;;;;;;;5.95;5.30;;;14.10;15.80;;;;;;5042837;28;20047;-72
2021/09/19 07:47:07;;;;;;;6.38;5.18;;;14.20;17.50;;;;;;5025691;28;20094;-70
2021/09/19 07:49:36;;;;;;;6.85;5.50;;;14.30;16.90;;;;;;5059655;28;20114;-71
2021/09/19 07:52:05;;;;;;;7.03;5.00;;;14.50;16.20;;;;;;5042975;28;20753;-72
2021/09/19 07:54:33;;;;;;;8.38;6.32;;;14.50;16.30;;;;;;5022259;28;20053;-71
2021/09/19 07:57:02;;;;;;;7.22;5.07;;;14.60;15.90;;;;;;5062977;28;20118;-72
2021/09/19 07:59:31;;;;;;;5.80;5.20;;;14.60;14.60;;;;;;5058075;28;20060;-72
2021/09/19 08:01:59;;;;;;;6.03;4.97;;;14.70;14.60;;;;;;5059009;28;20052;-72
2021/09/19 08:04:27;;;;;;;6.65;5.53;;;14.90;14.20;;;;;;5056770;28;20056;-72
2021/09/19 08:06:55;;;;;;;6.30;5.63;;;14.90;13.40;;;;;;5057122;28;20088;-72
2021/09/19 08:09:25;;;;;;;6.93;4.90;;;15.00;12.80;;;;;;5060972;28;20396;-71
2021/09/19 08:11:54;;;;;;;6.13;4.90;;;14.90;13.40;;;;;;5063343;28;20048;-71
2021/09/19 08:14:22;;;;;;;12.05;4.75;;;14.90;12.10;;;;;;5054730;28;20045;-72
2021/09/19 08:16:51;;;;;;;5.55;4.65;;;15.00;12.80;;;;;;5061085;28;20075;-71
2021/09/19 08:19:21;;;;;;;5.65;4.78;;;15.20;11.80;;;;;;5058341;28;20114;-72
2021/09/19 08:21:49;;;;;;;5.70;4.55;;;15.50;10.40;;;;;;5055303;28;20517;-71
2021/09/19 08:24:17;;;;;;;6.35;4.65;;;15.50;9.30;;;;;;5064277;28;20045;-71
2021/09/19 08:26:46;;;;;;;5.53;4.93;;;15.60;9.40;;;;;;5062210;28;20044;-71
2021/09/19 08:29:14;;;;;;;5.70;4.80;;;15.50;9.00;;;;;;5061216;28;20090;-71
2021/09/19 08:31:42;;;;;;;5.63;4.93;;;15.60;8.40;;;;;;5067674;28;20143;-71
2021/09/19 08:34:12;;;;;;;8.10;5.32;;;15.50;7.80;;;;;;5058595;28;20052;-71
2021/09/19 08:36:40;;;;;;;5.00;4.30;;;15.60;8.50;;;;;;5060614;28;20047;-71
2021/09/19 08:39:10;;;;;;;5.78;5.20;;;15.70;7.90;;;;;;5066505;28;20048;-71
2021/09/19 08:41:38;;;;;;;5.15;4.65;;;15.90;6.60;;;;;;5060082;28;20090;-71
2021/09/19 08:44:06;;;;;;;4.82;4.32;;;16.00;5.30;;;;;;5063346;28;20048;-71
2021/09/19 08:46:35;;;;;;;7.00;5.40;;;16.10;5.40;;;;;;5062098;28;20153;-71
2021/09/19 08:49:03;;;;;;;5.03;4.53;;;15.90;8.10;;;;;;5061155;28;20127;-71
2021/09/19 08:51:33;;;;;;;5.35;4.75;;;15.80;7.70;;;;;;5067461;28;20099;-72
2021/09/19 08:54:01;;;;;;;6.28;4.63;;;15.90;8.20;;;;;;5061831;28;20123;-70
2021/09/19 08:56:29;;;;;;;5.18;4.40;;;16.00;8.20;;;;;;5058919;28;20056;-71
2021/09/19 08:58:57;;;;;;;6.55;4.88;;;16.20;8.20;;;;;;5066319;28;20045;-71
2021/09/19 09:01:27;;;;;;;5.35;4.60;;;16.60;6.10;;;;;;5060995;28;20041;-72
2021/09/19 09:04:06;;;;;;;6.00;5.15;;;16.20;7.00;;;;;;5058612;28;20518;-72
2021/09/19 09:06:39;;;;;;;5.18;4.45;;;16.50;6.60;;;;;;5043733;28;20114;-71
2021/09/19 09:09:15;;;;;;;5.55;4.70;;;16.20;5.80;;;;;;5043821;28;20044;-71
2021/09/19 09:11:58;;;;;;;4.68;4.20;;;16.20;6.80;;;;;;5061217;28;20041;-73
2021/09/19 09:14:27;;;;;;;5.28;4.20;;;16.60;3.40;;;;;;5047631;28;20106;-72
2021/09/19 09:17:12;;;;;;;5.70;4.53;;;16.70;3.70;;;;;;5060241;28;20110;-69
2021/09/19 09:19:40;;;;;;;5.45;4.38;;;16.40;5.00;;;;;;5057494;28;20052;-72
2021/09/19 09:22:10;;;;;;;10.13;4.65;;;16.50;5.00;;;;;;5065517;28;20114;-70
2021/09/19 09:24:39;;;;;;;5.70;4.50;;;16.50;4.80;;;;;;5060228;28;20479;-71
2021/09/19 09:27:23;;;;;;;4.75;4.10;;;16.80;4.00;;;;;;5026749;28;20061;-70
2021/09/19 09:30:09;;;;;;;5.13;4.43;;;17.00;2.80;;;;;;5043901;28;20048;-71
2021/09/19 09:32:51;;;;;;;5.40;4.90;;;17.00;3.70;;;;;;5060854;28;20044;-71
2021/09/19 09:35:20;;;;;;;5.07;4.57;;;17.00;3.20;;;;;;5056014;28;20060;-70
2021/09/19 09:37:53;;;;;;;5.65;4.45;;;17.00;2.40;;;;;;5063965;28;20377;-71
2021/09/19 09:40:27;;;;;;;5.47;4.10;;;17.00;2.50;;;;;;5060520;28;20049;-70
2021/09/19 09:43:09;;;;;;;5.40;4.30;;;16.80;2.80;;;;;;5059219;28;20036;-71
2021/09/19 09:45:39;;;;;;;6.78;4.40;;;17.20;2.00;;;;;;5059162;28;20048;-71
2021/09/19 09:48:26;;;;;;;4.47;3.63;;;17.60;1.10;;;;;;5062523;28;20048;-71
2021/09/19 09:50:55;;;;;;;4.10;3.70;;;17.20;1.00;;;;;;5057938;28;20110;-71
2021/09/19 09:53:25;;;;;;;5.20;3.97;;;17.50;1.00;;;;;;5064190;28;20052;-71
2021/09/19 09:55:57;;;;;;;4.70;3.92;;;17.60;1.00;;;;;;5055884;28;20106;-71
2021/09/19 09:58:26;;;;;;;3.88;3.47;;;17.80;1.00;;;;;;5061892;28;20044;-70
2021/09/19 10:00:56;;;;;;;3.83;3.42;;;18.10;1.00;;;;;;5066312;28;20079;-72
2021/09/19 10:03:25;;;;;;;4.68;4.00;;;18.00;1.00;;;;;;5059148;28;20132;-71
2021/09/19 10:05:54;;;;;;;4.68;3.70;;;17.90;1.00;;;;;;5053197;28;20054;-71
2021/09/19 10:08:36;;;;;;;4.20;3.75;;;18.30;1.00;;;;;;5061654;28;20048;-71
2021/09/19 10:11:07;;;;;;;4.28;3.55;;;18.10;1.00;;;;;;5062352;28;20047;-70
2021/09/19 10:13:38;;;;;;;3.78;3.30;;;18.30;1.00;;;;;;5055492;28;20086;-71
2021/09/19 10:16:06;;;;;;;6.07;4.13;;;18.30;1.00;;;;;;5060018;28;20052;-71
2021/09/19 10:18:34;;;;;;;4.63;3.80;;;18.20;1.00;;;;;;5059277;28;20052;-71
2021/09/19 10:21:04;;;;;;;4.60;4.10;;;18.30;1.00;;;;;;5060872;28;20048;-72
2021/09/19 10:23:36;;;;;;;5.45;4.20;;;18.40;1.00;;;;;;5045125;28;20043;-72
2021/09/19 10:26:08;;;;;;;4.72;3.88;;;18.50;1.00;;;;;;5042363;28;20045;-71
2021/09/19 10:28:39;;;;;;;4.88;4.20;;;18.60;1.00;;;;;;5040780;28;20057;-72
2021/09/19 10:31:27;;;;;;;4.25;3.47;;;18.70;1.00;;;;;;5051969;28;20040;-72
2021/09/19 10:33:58;;;;;;;3.30;3.00;;;19.00;1.00;;;;;;5055587;28;20047;-71
2021/09/19 10:36:44;;;;;;;4.45;4.05;;;19.00;1.00;;;;;;5039954;28;20245;-72
2021/09/19 10:39:20;;;;;;;4.55;4.10;;;19.00;1.00;;;;;;5063598;28;20060;-71
2021/09/19 10:42:10;;;;;;;4.30;3.90;;;18.50;1.00;;;;;;5059145;28;20060;-71
2021/09/19 10:45:04;;;;;;;3.53;3.22;;;19.00;1.00;;;;;;5057139;28;20171;-71
2021/09/19 10:47:39;;;;;;;4.70;3.67;;;19.10;1.00;;;;;;5043755;28;20056;-71
2021/09/19 10:50:29;;;;;;;4.68;3.80;;;18.90;1.00;;;;;;5059181;28;20569;-70
2021/09/19 10:52:59;;;;;;;5.43;4.80;;;18.90;1.00;;;;;;5057760;28;20044;-71
2021/09/19 10:55:32;;;;;;;5.05;4.03;;;18.90;1.00;;;;;;5059742;28;20055;-71
2021/09/19 10:58:07;;;;;;;4.38;3.97;;;19.00;1.00;;;;;;5064018;28;20130;-71
2021/09/19 11:00:35;;;;;;;6.05;4.25;;;19.00;1.00;;;;;;5058556;28;20571;-70
2021/09/19 11:03:13;;;;;;;6.45;4.03;;;19.00;1.00;;;;;;5060225;28;20057;-70
2021/09/19 11:05:44;;;;;;;5.28;4.00;;;19.00;1.00;;;;;;5057442;28;20537;-70
2021/09/19 11:08:23;;;;;;;4.05;3.65;;;18.60;1.00;;;;;;5058893;28;20108;-70
2021/09/19 11:11:12;;;;;;;4.75;4.25;;;18.90;1.00;;;;;;5044204;28;20555;-70
2021/09/19 11:13:42;;;;;;;5.78;4.35;;;18.40;1.00;;;;;;5061457;28;20056;-71
2021/09/19 11:16:29;;;;;;;4.53;3.97;;;18.70;1.00;;;;;;5056978;28;20106;-71
2021/09/19 11:19:00;;;;;;;5.53;4.82;;;18.40;1.00;;;;;;5059105;28;20048;-71
2021/09/19 11:21:39;;;;;;;5.15;4.45;;;18.40;1.00;;;;;;5062967;28;20052;-70
2021/09/19 11:24:11;;;;;;;6.50;5.30;;;18.50;1.00;;;;;;5045229;28;20044;-70
2021/09/19 11:26:43;;;;;;;5.00;4.50;;;19.00;1.00;;;;;;5058020;28;20056;-70
2021/09/19 11:29:13;;;;;;;5.43;4.53;;;19.20;1.00;;;;;;5060782;28;20573;-71
2021/09/19 11:31:43;;;;;;;5.10;4.25;;;19.30;1.00;;;;;;5057452;28;20087;-71
2021/09/19 11:34:13;;;;;;;5.13;4.63;;;19.50;1.00;;;;;;5041716;28;20060;-71
2021/09/19 11:36:43;;;;;;;7.40;5.03;;;19.60;1.00;;;;;;5058316;28;20064;-70
2021/09/19 11:39:12;;;;;;;6.18;4.85;;;19.00;1.00;;;;;;5048372;28;20500;-71
2021/09/19 11:41:42;;;;;;;4.60;4.10;;;19.20;1.00;;;;;;5063045;28;20110;-70
2021/09/19 11:44:12;;;;;;;6.05;4.53;;;18.90;1.00;;;;;;5059839;28;20566;-70
2021/09/19 11:46:45;;;;;;;6.55;4.65;;;18.80;1.00;;;;;;5057184;28;20568;-71
2021/09/19 11:49:13;;;;;;;5.53;4.47;;;18.60;1.00;;;;;;5060139;28;20068;-70
2021/09/19 11:51:42;;;;;;;5.75;4.68;;;18.80;1.00;;;;;;5058396;28;20048;-70
2021/09/19 11:54:13;;;;;;;5.03;4.53;;;19.20;1.00;;;;;;5061237;28;20100;-70
2021/09/19 11:56:47;;;;;;;5.13;4.40;;;19.20;1.00;;;;;;5058313;28;20122;-71
2021/09/19 11:59:17;;;;;;;5.03;4.53;;;19.80;1.00;;;;;;5045315;28;20451;-70
2021/09/19 12:01:45;;;;;;;6.88;5.53;;;19.30;1.00;;;;;;5064903;28;20048;-69
2021/09/19 12:04:14;;;;;;;6.40;5.32;;;18.90;1.00;;;;;;5044753;28;20052;-71
2021/09/19 12:06:44;;;;;;;5.32;4.72;;;18.80;1.00;;;;;;5060552;28;20485;-71
2021/09/19 12:09:13;;;;;;;5.93;4.78;;;19.30;1.00;;;;;;5064452;28;20055;-70
2021/09/19 12:11:46;;;;;;;5.03;4.53;;;19.40;1.00;;;;;;5064574;28;20048;-70
2021/09/19 12:14:18;;;;;;;5.03;4.45;;;19.20;1.00;;;;;;5061906;28;20076;-71
2021/09/19 12:17:03;;;;;;;6.13;5.13;;;19.50;1.00;;;;;;5064145;28;20823;-71
2021/09/19 12:19:33;;;;;;;5.03;4.43;;;19.00;1.00;;;;;;5062220;28;20052;-69
2021/09/19 12:22:03;;;;;;;5.63;5.03;;;19.50;1.00;;;;;;5060722;28;20118;-71
2021/09/19 12:24:34;;;;;;;5.85;5.15;;;19.50;1.00;;;;;;5067337;28;20048;-70
2021/09/19 12:27:15;;;;;;;6.10;4.85;;;19.50;1.00;;;;;;5060965;28;20051;-71
2021/09/19 12:29:56;;;;;;;5.15;4.60;;;19.90;1.00;;;;;;5060403;28;20080;-71
2021/09/19 12:32:33;;;;;;;5.57;4.88;;;20.00;1.00;;;;;;5064015;28;20507;-71
2021/09/19 12:35:02;;;;;;;5.70;4.50;;;20.10;1.00;;;;;;5059553;28;20048;-71
2021/09/19 12:37:34;;;;;;;5.88;4.93;;;20.00;1.00;;;;;;5061236;28;20056;-71
2021/09/19 12:40:08;;;;;;;5.93;5.38;;;20.00;1.00;;;;;;5047871;28;20056;-71
2021/09/19 12:42:37;;;;;;;5.63;4.80;;;20.10;1.00;;;;;;5061375;28;20053;-72
2021/09/19 12:45:10;;;;;;;5.07;4.55;;;19.70;1.00;;;;;;5062537;28;20397;-70
2021/09/19 12:47:38;;;;;;;7.57;4.75;;;19.90;1.00;;;;;;5064351;28;20051;-71
2021/09/19 12:50:09;;;;;;;6.20;5.15;;;20.00;1.00;;;;;;5059247;28;20097;-70
2021/09/19 12:52:39;;;;;;;4.82;4.18;;;20.10;1.00;;;;;;5062828;28;20057;-71
2021/09/19 12:55:16;;;;;;;5.65;4.70;;;20.00;1.00;;;;;;5065504;28;20067;-71
2021/09/19 12:57:47;;;;;;;5.18;4.13;;;20.40;1.00;;;;;;5059563;28;20056;-71